createdAt,value
2019-03-15T00:01:46.089Z,11.17
2019-03-15T00:04:16.603Z,11.33
2019-03-15T00:06:47.175Z,12.47
2019-03-15T00:09:17.854Z,12.30
2019-03-15T00:11:48.551Z,11.50
2019-03-15T00:14:18.950Z,12.20
2019-03-15T00:16:49.717Z,12.33
2019-03-15T00:19:20.415Z,12.50
2019-03-15T00:21:50.859Z,12.70
2019-03-15T00:24:21.205Z,12.57
2019-03-15T00:26:51.791Z,11.47
2019-03-15T00:29:22.555Z,11.23
2019-03-15T00:31:53.220Z,11.63
2019-03-15T00:34:23.763Z,11.87
2019-03-15T00:36:54.168Z,11.60
2019-03-15T00:39:26.064Z,11.13
2019-03-15T00:41:56.480Z,12.50
2019-03-15T00:44:27.082Z,12.30
2019-03-15T00:46:57.641Z,11.60
2019-03-15T00:49:28.310Z,10.80
2019-03-15T00:51:58.784Z,10.47
2019-03-15T00:54:29.264Z,10.53
2019-03-15T00:56:59.643Z,10.70
2019-03-15T00:59:30.401Z,9.20
2019-03-15T01:02:00.878Z,9.70
2019-03-15T01:04:31.687Z,9.43
2019-03-15T01:07:02.110Z,12.93
2019-03-15T01:09:32.684Z,14.83
2019-03-15T01:12:03.218Z,15.90
2019-03-15T01:14:33.856Z,14.90
2019-03-15T01:17:04.778Z,12.03
2019-03-15T01:19:35.314Z,15.03
2019-03-15T01:22:05.924Z,17.63
2019-03-15T01:24:36.662Z,20.93
2019-03-15T01:27:07.367Z,21.00
2019-03-15T01:29:37.791Z,21.97
2019-03-15T01:32:08.804Z,22.37
2019-03-15T01:34:39.213Z,21.33
2019-03-15T01:37:09.927Z,20.27
2019-03-15T01:39:40.666Z,22.03
2019-03-15T01:42:11.142Z,21.00
2019-03-15T01:44:41.680Z,20.87
2019-03-15T01:47:12.287Z,20.30
2019-03-15T01:49:44.502Z,19.37
2019-03-15T01:52:15.055Z,19.77
2019-03-15T01:54:45.654Z,18.70
2019-03-15T01:57:16.226Z,18.10
2019-03-15T01:59:46.896Z,17.77
2019-03-15T02:02:17.374Z,17.80
2019-03-15T02:04:47.750Z,17.43
2019-03-15T02:07:18.207Z,16.70
2019-03-15T02:09:49.017Z,16.13
2019-03-15T02:12:19.470Z,15.93
2019-03-15T02:14:50.365Z,15.43
2019-03-15T02:17:20.874Z,12.70
2019-03-15T02:19:51.232Z,12.00
2019-03-15T02:22:21.689Z,12.33
2019-03-15T02:24:52.525Z,11.87
2019-03-15T02:27:22.978Z,12.53
2019-03-15T02:29:53.575Z,11.07
2019-03-15T02:32:24.103Z,11.67
2019-03-15T02:34:54.823Z,11.77
2019-03-15T02:37:25.236Z,11.27
2019-03-15T02:39:55.710Z,11.80
2019-03-15T02:42:26.622Z,11.50
2019-03-15T02:44:57.518Z,10.73
2019-03-15T02:47:27.971Z,10.10
2019-03-15T02:49:58.502Z,10.40
2019-03-15T02:52:29.398Z,9.87
2019-03-15T02:54:59.858Z,10.67
2019-03-15T02:57:30.713Z,12.80
2019-03-15T03:00:01.337Z,8.73
2019-03-15T03:02:32.043Z,7.57
2019-03-15T03:05:02.854Z,6.10
2019-03-15T03:07:33.696Z,6.90
2019-03-15T03:10:04.388Z,6.97
2019-03-15T03:12:35.150Z,7.13
2019-03-15T03:15:05.960Z,7.87
2019-03-15T03:17:36.458Z,7.00
2019-03-15T03:20:07.817Z,7.40
2019-03-15T03:22:38.497Z,8.50
2019-03-15T03:25:09.001Z,8.17
2019-03-15T03:27:39.757Z,8.97
2019-03-15T03:30:10.343Z,7.97
2019-03-15T03:32:44.124Z,11.10
2019-03-15T03:35:13.341Z,13.03
2019-03-15T03:37:45.129Z,12.17
2019-03-15T03:40:19.763Z,13.93
2019-03-15T03:42:48.195Z,15.10
2019-03-15T03:45:19.136Z,15.20
2019-03-15T03:47:49.565Z,14.07
2019-03-15T03:50:20.109Z,14.37
2019-03-15T03:52:50.789Z,13.57
2019-03-15T03:55:21.402Z,12.77
2019-03-15T03:57:51.928Z,12.67
2019-03-15T04:00:22.527Z,11.67
2019-03-15T04:02:53.557Z,12.37
2019-03-15T04:05:24.512Z,12.10
2019-03-15T04:07:55.297Z,10.60
2019-03-15T04:10:26.043Z,11.37
2019-03-15T04:12:56.571Z,11.33
2019-03-15T04:15:27.284Z,9.63
2019-03-15T04:17:57.855Z,10.03
2019-03-15T04:20:28.092Z,11.23
2019-03-15T04:22:58.990Z,10.80
2019-03-15T04:25:29.588Z,11.13
2019-03-15T04:28:00.202Z,11.10
2019-03-15T04:30:30.818Z,10.80
2019-03-15T04:33:01.611Z,11.10
2019-03-15T04:35:32.362Z,10.57
2019-03-15T04:38:02.987Z,10.50
2019-03-15T04:40:33.720Z,9.67
2019-03-15T04:43:04.298Z,9.40
2019-03-15T04:45:34.988Z,10.00
2019-03-15T04:48:05.441Z,9.27
2019-03-15T04:50:36.372Z,9.60
2019-03-15T04:53:07.164Z,9.23
2019-03-15T04:55:37.858Z,11.90
2019-03-15T04:58:08.700Z,12.93
2019-03-15T05:00:39.449Z,12.50
2019-03-15T05:03:10.148Z,11.47
2019-03-15T05:05:40.886Z,12.57
2019-03-15T05:08:11.837Z,12.20
2019-03-15T05:10:42.744Z,12.83
2019-03-15T05:13:13.505Z,12.93
2019-03-15T05:15:44.057Z,13.63
2019-03-15T05:18:14.824Z,12.43
2019-03-15T05:20:45.375Z,13.37
2019-03-15T05:23:15.941Z,13.63
2019-03-15T05:25:46.551Z,12.77
2019-03-15T05:28:17.302Z,13.40
2019-03-15T05:30:47.897Z,13.70
2019-03-15T05:33:18.347Z,13.73
2019-03-15T05:35:49.236Z,13.70
2019-03-15T05:38:19.773Z,12.13
2019-03-15T05:40:50.223Z,13.37
2019-03-15T05:43:21.017Z,12.73
2019-03-15T05:45:51.677Z,13.13
2019-03-15T05:48:22.089Z,13.00
2019-03-15T05:50:52.631Z,14.27
2019-03-15T05:53:23.159Z,12.10
2019-03-15T05:55:53.796Z,12.70
2019-03-15T05:58:24.255Z,13.20
2019-03-15T06:00:54.702Z,13.27
2019-03-15T06:03:25.483Z,15.60
2019-03-15T06:05:56.190Z,21.40
2019-03-15T06:08:27.670Z,16.10
2019-03-15T06:10:58.170Z,14.10
2019-03-15T06:13:28.673Z,14.77
2019-03-15T06:15:59.007Z,15.70
2019-03-15T06:18:31.798Z,15.30
2019-03-15T06:21:02.525Z,15.20
2019-03-15T06:23:33.161Z,13.87
2019-03-15T06:26:03.759Z,14.27
2019-03-15T06:28:34.330Z,15.03
2019-03-15T06:31:05.116Z,14.80
2019-03-15T06:33:35.905Z,14.77
2019-03-15T06:36:06.434Z,16.47
2019-03-15T06:38:36.807Z,15.53
2019-03-15T06:41:07.505Z,15.63
2019-03-15T06:43:38.001Z,16.00
2019-03-15T06:46:08.591Z,16.10
2019-03-15T06:48:39.082Z,16.40
2019-03-15T06:51:09.573Z,15.73
2019-03-15T06:53:39.949Z,14.83
2019-03-15T06:56:10.749Z,19.23
2019-03-15T06:58:41.165Z,14.57
2019-03-15T07:01:11.602Z,15.57
2019-03-15T07:03:42.227Z,14.70
2019-03-15T07:06:12.892Z,14.10
2019-03-15T07:08:43.597Z,13.73
2019-03-15T07:11:14.019Z,15.03
2019-03-15T07:13:44.710Z,15.97
2019-03-15T07:16:15.328Z,20.87
2019-03-15T07:18:46.087Z,22.30
2019-03-15T07:21:16.676Z,18.13
2019-03-15T07:23:48.281Z,10.83
2019-03-15T07:26:18.839Z,11.10
2019-03-15T07:28:49.320Z,12.07
2019-03-15T07:31:19.972Z,12.10
2019-03-15T07:33:50.320Z,12.53
2019-03-15T07:36:20.735Z,14.90
2019-03-15T07:38:51.485Z,10.10
2019-03-15T07:41:25.222Z,10.73
2019-03-15T07:43:54.080Z,11.57
2019-03-15T07:46:24.649Z,10.83
2019-03-15T07:48:55.431Z,10.63
2019-03-15T07:51:25.939Z,10.40
2019-03-15T07:53:56.299Z,9.97
2019-03-15T07:56:28.647Z,11.83
2019-03-15T07:58:59.352Z,11.23
2019-03-15T08:01:29.832Z,12.03
2019-03-15T08:04:00.401Z,10.57
2019-03-15T08:06:34.976Z,10.83
2019-03-15T08:09:03.532Z,9.40
2019-03-15T08:11:33.902Z,8.90
2019-03-15T08:14:04.818Z,8.63
2019-03-15T08:16:35.390Z,8.10
2019-03-15T08:19:06.236Z,8.70
2019-03-15T08:21:36.813Z,10.20
2019-03-15T08:24:07.338Z,9.53
2019-03-15T08:26:38.011Z,9.43
2019-03-15T08:29:09.853Z,9.43
2019-03-15T08:31:40.783Z,9.43
2019-03-15T08:34:11.349Z,7.63
2019-03-15T08:36:41.963Z,9.13
2019-03-15T08:39:12.558Z,9.10
2019-03-15T08:41:43.112Z,9.97
2019-03-15T08:44:13.750Z,10.63
2019-03-15T08:46:44.347Z,10.70
2019-03-15T08:49:14.784Z,12.10
2019-03-15T08:51:45.414Z,8.73
2019-03-15T08:54:15.928Z,8.63
2019-03-15T08:56:46.466Z,8.67
2019-03-15T08:59:16.937Z,8.30
2019-03-15T09:01:47.466Z,9.13
2019-03-15T09:04:21.283Z,8.57
2019-03-15T09:06:50.504Z,6.53
2019-03-15T09:09:21.231Z,8.20
2019-03-15T09:11:54.688Z,7.13
2019-03-15T09:14:25.212Z,7.07
2019-03-15T09:16:55.719Z,7.73
2019-03-15T09:19:26.529Z,8.03
2019-03-15T09:22:00.341Z,7.70
2019-03-15T09:24:29.156Z,8.90
2019-03-15T09:26:59.947Z,7.03
2019-03-15T09:29:30.466Z,8.60
2019-03-15T09:32:06.354Z,7.70
2019-03-15T09:34:33.662Z,6.93
2019-03-15T09:37:04.105Z,6.57
2019-03-15T09:39:34.701Z,7.00
2019-03-15T09:42:05.439Z,15.20
2019-03-15T09:44:37.508Z,12.30
2019-03-15T09:47:07.930Z,8.57
2019-03-15T09:49:38.475Z,6.80
2019-03-15T09:52:08.953Z,7.30
2019-03-15T09:54:39.449Z,9.43
2019-03-15T09:57:09.938Z,8.57
2019-03-15T09:59:40.484Z,6.57
2019-03-15T10:02:29.318Z,7.00
2019-03-15T10:04:48.605Z,7.23
2019-03-15T10:07:19.544Z,7.27
2019-03-15T10:09:50.144Z,7.20
2019-03-15T10:12:23.605Z,6.80
2019-03-15T10:14:54.133Z,6.37
2019-03-15T10:17:24.357Z,6.10
2019-03-15T10:19:54.320Z,6.87
2019-03-15T10:22:31.527Z,7.10
2019-03-15T10:25:21.708Z,6.70
2019-03-15T10:27:53.173Z,6.20
2019-03-15T10:30:23.072Z,6.70
2019-03-15T10:32:52.834Z,5.80
2019-03-15T10:35:26.292Z,7.17
2019-03-15T10:37:58.272Z,6.80
2019-03-15T10:40:28.489Z,7.90
2019-03-15T10:43:02.085Z,7.57
2019-03-15T10:45:43.278Z,6.47
2019-03-15T10:48:26.483Z,6.57
2019-03-15T10:50:56.889Z,5.30
2019-03-15T10:53:29.274Z,7.80
2019-03-15T10:56:01.776Z,5.27
2019-03-15T10:58:34.202Z,5.87
2019-03-15T11:01:06.449Z,4.70
2019-03-15T11:03:36.411Z,5.20
2019-03-15T11:06:09.981Z,5.33
2019-03-15T11:08:40.477Z,4.90
2019-03-15T11:11:10.950Z,4.97
2019-03-15T11:13:41.449Z,5.50
2019-03-15T11:16:12.028Z,5.07
2019-03-15T11:18:43.951Z,4.60
2019-03-15T11:21:14.558Z,4.77
2019-03-15T11:23:53.275Z,4.53
2019-03-15T11:26:23.623Z,9.87
2019-03-15T11:28:54.162Z,5.50
2019-03-15T11:31:24.106Z,5.37
2019-03-15T11:33:54.801Z,6.13
2019-03-15T11:36:32.956Z,5.13
2019-03-15T11:39:03.664Z,5.73
2019-03-15T11:41:33.959Z,5.30
2019-03-15T11:44:05.852Z,4.10
2019-03-15T11:46:36.315Z,4.47
2019-03-15T11:49:09.126Z,4.43
2019-03-15T11:51:47.356Z,5.80
2019-03-15T11:54:17.432Z,5.37
2019-03-15T11:57:07.546Z,6.00
2019-03-15T11:59:37.772Z,5.17
2019-03-15T12:02:11.642Z,6.70
2019-03-15T12:04:42.141Z,6.23
2019-03-15T12:07:22.070Z,6.87
2019-03-15T12:10:01.900Z,6.43
2019-03-15T12:12:37.424Z,10.67
2019-03-15T12:15:08.866Z,5.87
2019-03-15T12:17:39.028Z,6.33
2019-03-15T12:20:09.761Z,8.40
2019-03-15T12:22:39.635Z,6.20
2019-03-15T12:25:09.782Z,6.50
2019-03-15T12:27:43.161Z,6.10
2019-03-15T12:30:16.569Z,5.33
2019-03-15T12:32:52.063Z,6.07
2019-03-15T12:35:23.817Z,5.40
2019-03-15T12:37:54.071Z,6.17
2019-03-15T12:40:24.414Z,10.93
2019-03-15T12:42:55.043Z,7.13
2019-03-15T12:45:25.663Z,5.60
2019-03-15T12:47:56.239Z,6.27
2019-03-15T12:50:26.735Z,5.87
2019-03-15T12:52:57.295Z,4.90
2019-03-15T12:55:27.769Z,6.00
2019-03-15T12:57:57.989Z,4.47
2019-03-15T13:00:28.346Z,4.77
2019-03-15T13:02:58.648Z,4.57
2019-03-15T13:05:28.941Z,5.30
2019-03-15T13:07:59.494Z,5.47
2019-03-15T13:10:30.094Z,4.73
2019-03-15T13:13:00.524Z,4.80
2019-03-15T13:15:32.210Z,5.00
2019-03-15T13:18:02.880Z,4.70
2019-03-15T13:20:33.277Z,4.63
2019-03-15T13:23:03.654Z,7.67
2019-03-15T13:25:34.134Z,6.20
2019-03-15T13:28:04.922Z,12.70
2019-03-15T13:30:35.348Z,5.13
2019-03-15T13:33:19.297Z,5.13
2019-03-15T13:35:38.249Z,11.87
2019-03-15T13:38:08.935Z,6.10
2019-03-15T13:40:39.536Z,4.80
2019-03-15T13:43:10.066Z,3.93
2019-03-15T13:45:40.449Z,5.50
2019-03-15T13:48:10.890Z,7.67
2019-03-15T13:50:41.471Z,6.03
2019-03-15T13:53:12.097Z,7.77
2019-03-15T13:55:42.870Z,6.70
2019-03-15T13:58:17.186Z,6.47
2019-03-15T14:00:47.818Z,8.10
2019-03-15T14:03:19.471Z,7.83
2019-03-15T14:05:51.363Z,8.30
2019-03-15T14:08:21.769Z,6.47
2019-03-15T14:10:52.191Z,6.33
2019-03-15T14:13:22.892Z,10.90
2019-03-15T14:15:53.534Z,7.30
2019-03-15T14:18:26.331Z,6.17
2019-03-15T14:20:56.859Z,8.00
2019-03-15T14:23:27.396Z,10.67
2019-03-15T14:25:57.894Z,5.00
2019-03-15T14:28:28.513Z,5.57
2019-03-15T14:30:59.422Z,6.07
2019-03-15T14:33:29.909Z,4.30
2019-03-15T14:36:00.287Z,4.30
2019-03-15T14:38:31.045Z,4.60
2019-03-15T14:41:02.256Z,6.60
2019-03-15T14:43:32.912Z,9.20
2019-03-15T14:46:03.588Z,7.80
2019-03-15T14:48:34.375Z,13.80
2019-03-15T14:51:05.167Z,9.23
2019-03-15T14:53:35.572Z,9.23
2019-03-15T14:56:06.425Z,10.07
2019-03-15T14:58:36.763Z,10.77
2019-03-15T15:01:07.249Z,8.47
2019-03-15T15:03:37.708Z,7.10
2019-03-15T15:06:08.349Z,9.40
2019-03-15T15:08:38.936Z,11.30
2019-03-15T15:11:09.733Z,21.07
2019-03-15T15:13:40.312Z,21.10
2019-03-15T15:16:10.670Z,13.60
2019-03-15T15:18:41.328Z,12.23
2019-03-15T15:21:11.766Z,14.13
2019-03-15T15:23:43.811Z,18.27
2019-03-15T15:26:14.377Z,17.90
2019-03-15T15:28:44.907Z,31.60
2019-03-15T15:31:15.633Z,14.43
2019-03-15T15:33:45.910Z,9.90
2019-03-15T15:36:16.445Z,6.47
2019-03-15T15:38:47.012Z,6.80
2019-03-15T15:41:17.644Z,8.90
2019-03-15T15:43:48.256Z,7.20
2019-03-15T15:46:20.600Z,8.70
2019-03-15T15:48:53.955Z,7.00
2019-03-15T15:51:24.548Z,7.07
2019-03-15T15:53:55.209Z,8.30
2019-03-15T15:56:25.815Z,8.50
2019-03-15T15:58:56.414Z,27.73
2019-03-15T16:01:26.862Z,43.03
2019-03-15T16:03:57.763Z,30.60
2019-03-15T16:06:28.451Z,21.27
2019-03-15T16:08:59.107Z,12.90
2019-03-15T16:11:29.796Z,12.07
2019-03-15T16:14:05.931Z,11.47
2019-03-15T16:16:39.624Z,7.07
2019-03-15T16:19:10.369Z,6.87
2019-03-15T16:21:41.059Z,6.17
2019-03-15T16:24:11.791Z,9.13
2019-03-15T16:26:42.405Z,5.40
2019-03-15T16:29:13.065Z,6.03
2019-03-15T16:31:43.593Z,6.53
2019-03-15T16:34:14.376Z,5.30
2019-03-15T16:36:45.202Z,6.23
2019-03-15T16:39:16.184Z,5.53
2019-03-15T16:41:46.863Z,5.97
2019-03-15T16:44:17.441Z,8.75
2019-03-15T16:46:47.989Z,6.73
2019-03-15T16:49:18.612Z,6.43
2019-03-15T16:51:49.275Z,5.70
2019-03-15T16:54:19.838Z,50.30
2019-03-15T16:56:50.410Z,18.03
2019-03-15T16:59:21.025Z,8.77
2019-03-15T17:01:54.147Z,7.63
2019-03-15T17:04:24.134Z,92.40
2019-03-15T17:06:55.405Z,66.67
2019-03-15T17:09:27.558Z,45.07
2019-03-15T17:12:00.265Z,10.17
2019-03-15T17:14:31.185Z,14.73
2019-03-15T17:17:01.938Z,46.53
2019-03-15T17:19:32.485Z,12.23
2019-03-15T17:22:03.083Z,13.10
2019-03-15T17:24:34.089Z,59.20
2019-03-15T17:27:04.478Z,34.30
2019-03-15T17:29:34.854Z,28.97
2019-03-15T17:32:05.603Z,13.80
2019-03-15T17:34:36.507Z,28.23
2019-03-15T17:37:08.135Z,25.93
2019-03-15T17:39:38.788Z,25.80
2019-03-15T17:42:09.586Z,24.73
2019-03-15T17:44:40.418Z,24.77
2019-03-15T17:47:11.118Z,20.90
2019-03-15T17:49:41.658Z,16.87
2019-03-15T17:52:12.370Z,18.57
2019-03-15T17:54:42.991Z,17.13
2019-03-15T17:57:15.534Z,26.07
2019-03-15T18:00:08.521Z,43.07
2019-03-15T18:02:39.197Z,51.07
2019-03-15T18:05:10.301Z,43.97
2019-03-15T18:07:40.701Z,50.57
2019-03-15T18:10:11.250Z,56.57
2019-03-15T18:12:42.016Z,50.13
2019-03-15T18:15:12.729Z,30.30
2019-03-15T18:17:43.163Z,35.00
2019-03-15T18:20:13.946Z,46.27
2019-03-15T18:22:44.602Z,42.53
2019-03-15T18:25:15.483Z,48.73
2019-03-15T18:27:46.268Z,12.07
2019-03-15T18:30:16.840Z,28.70
2019-03-15T18:32:47.474Z,15.87
2019-03-15T18:35:18.198Z,18.73
2019-03-15T18:37:48.980Z,17.00
2019-03-15T18:40:19.812Z,10.30
2019-03-15T18:42:50.099Z,13.77
2019-03-15T18:45:20.657Z,11.03
2019-03-15T18:47:51.195Z,9.33
2019-03-15T18:50:23.325Z,7.47
2019-03-15T18:52:54.375Z,7.13
2019-03-15T18:55:25.249Z,7.13
2019-03-15T18:57:56.176Z,5.23
2019-03-15T19:00:26.659Z,8.73
2019-03-15T19:02:59.920Z,8.00
2019-03-15T19:05:29.834Z,7.93
2019-03-15T19:08:00.441Z,8.90
2019-03-15T19:10:31.038Z,10.30
2019-03-15T19:13:01.749Z,11.87
2019-03-15T19:15:32.333Z,8.13
2019-03-15T19:18:03.082Z,10.93
2019-03-15T19:20:33.612Z,10.63
2019-03-15T19:23:04.917Z,8.97
2019-03-15T19:25:36.606Z,9.30
2019-03-15T19:28:07.654Z,10.77
2019-03-15T19:30:38.386Z,10.40
2019-03-15T19:33:08.872Z,10.27
2019-03-15T19:35:39.452Z,9.80
2019-03-15T19:38:09.947Z,10.90
2019-03-15T19:40:40.243Z,9.13
2019-03-15T19:43:11.008Z,9.43
2019-03-15T19:45:42.647Z,11.07
2019-03-15T19:48:13.631Z,9.00
2019-03-15T19:50:45.617Z,13.43
2019-03-15T19:53:16.329Z,9.60
2019-03-15T19:55:47.039Z,11.77
2019-03-15T19:58:21.356Z,9.87
2019-03-15T20:00:52.063Z,10.80
2019-03-15T20:03:25.533Z,9.33
2019-03-15T20:05:56.845Z,11.20
2019-03-15T20:08:27.659Z,10.80
2019-03-15T20:10:58.398Z,13.90
2019-03-15T20:13:29.212Z,13.03
2019-03-15T20:15:59.778Z,13.97
2019-03-15T20:18:30.566Z,12.97
2019-03-15T20:21:01.370Z,11.30
2019-03-15T20:23:31.952Z,9.07
2019-03-15T20:26:02.756Z,9.63
2019-03-15T20:28:33.416Z,8.50
2019-03-15T20:31:03.799Z,9.17
2019-03-15T20:33:35.819Z,9.73
2019-03-15T20:36:06.581Z,9.73
2019-03-15T20:38:37.193Z,10.30
2019-03-15T20:41:07.751Z,8.10
2019-03-15T20:43:39.454Z,8.00
2019-03-15T20:46:10.103Z,6.97
2019-03-15T20:48:40.750Z,7.60
2019-03-15T20:51:11.264Z,8.87
2019-03-15T20:53:41.787Z,8.43
2019-03-15T20:56:12.424Z,7.83
2019-03-15T20:58:42.918Z,8.63
2019-03-15T21:01:13.683Z,7.50
2019-03-15T21:03:55.610Z,7.87
2019-03-15T21:06:16.550Z,8.13
2019-03-15T21:08:46.946Z,7.53
2019-03-15T21:11:17.685Z,6.77
2019-03-15T21:13:48.256Z,6.67
2019-03-15T21:16:18.810Z,7.43
2019-03-15T21:18:49.418Z,6.13
2019-03-15T21:21:19.763Z,6.20
2019-03-15T21:23:50.357Z,6.00
2019-03-15T21:26:20.984Z,7.97
2019-03-15T21:28:51.634Z,6.53
2019-03-15T21:31:22.369Z,8.30
2019-03-15T21:33:52.714Z,7.10
2019-03-15T21:36:23.119Z,8.77
2019-03-15T21:38:53.666Z,7.20
2019-03-15T21:41:24.310Z,7.63
2019-03-15T21:43:54.718Z,5.57
2019-03-15T21:46:25.323Z,7.87
2019-03-15T21:48:56.056Z,5.63
2019-03-15T21:51:26.516Z,5.90
2019-03-15T21:53:56.911Z,6.20
2019-03-15T21:56:27.696Z,6.77
2019-03-15T21:58:58.484Z,5.87
2019-03-15T22:01:31.526Z,5.70
2019-03-15T22:04:01.885Z,5.30
2019-03-15T22:06:32.727Z,6.87
2019-03-15T22:09:03.403Z,4.80
2019-03-15T22:11:33.925Z,6.23
2019-03-15T22:14:04.489Z,6.60
2019-03-15T22:16:35.333Z,5.03
2019-03-15T22:19:06.072Z,5.70
2019-03-15T22:21:36.754Z,4.17
2019-03-15T22:24:07.533Z,5.13
2019-03-15T22:26:37.991Z,5.17
2019-03-15T22:29:08.602Z,4.80
2019-03-15T22:31:39.291Z,5.50
2019-03-15T22:34:09.884Z,6.50
2019-03-15T22:36:40.219Z,4.40
2019-03-15T22:39:10.759Z,4.27
2019-03-15T22:41:41.383Z,4.87
2019-03-15T22:44:11.899Z,5.20
2019-03-15T22:46:42.618Z,4.67
2019-03-15T22:49:13.145Z,5.80
2019-03-15T22:51:43.853Z,3.90
2019-03-15T22:54:14.356Z,4.63
2019-03-15T22:56:44.905Z,4.00
2019-03-15T22:59:15.475Z,4.23
2019-03-15T23:01:46.497Z,3.73
2019-03-15T23:04:16.797Z,3.93
2019-03-15T23:06:47.744Z,3.50
2019-03-15T23:09:18.307Z,5.23
2019-03-15T23:11:48.849Z,4.63
2019-03-15T23:14:20.328Z,5.17
2019-03-15T23:16:50.692Z,3.73
2019-03-15T23:19:21.424Z,3.30
2019-03-15T23:21:52.022Z,3.77
2019-03-15T23:24:22.649Z,3.83
2019-03-15T23:26:53.359Z,3.80
2019-03-15T23:29:23.924Z,3.20
2019-03-15T23:31:54.656Z,4.00
2019-03-15T23:34:25.100Z,5.00
2019-03-15T23:36:55.905Z,4.33
2019-03-15T23:39:26.712Z,3.10
2019-03-15T23:41:57.431Z,3.67
2019-03-15T23:44:28.098Z,3.70
2019-03-15T23:46:58.473Z,6.53
2019-03-15T23:49:29.082Z,12.13
2019-03-15T23:51:59.689Z,24.20
2019-03-15T23:54:30.471Z,20.53
2019-03-15T23:57:00.900Z,25.93
2019-03-15T23:59:31.263Z,26.03
